Terminal Aerodrome Forecast
Issued by NWS

Home | Current Version | Previous Version | Text Only | Print | Product List | Glossary On
Versions: 1 2 3 4 5 6 7 8 9 10 11 12 13 14 15 16 17 18 19 20 21 22 23 24 25 26 27 28 29 30
909
FTUS41 KBUF 211744
TAFIAG
TAF
KIAG 211744Z 2118/2218 33013G19KT 6SM -RA OVC012
     FM211900 32012KT P6SM -RA OVC020
     FM212000 31012KT P6SM OVC040
     FM220000 32006KT P6SM BKN200
     FM220600 01006KT P6SM BKN150
     FM221100 06005KT P6SM OVC120=

USA.gov is the U.S. government's official web portal to all federal, state and local government web resources and services.